createdAt,value
2017-12-29T00:01:42.519Z,16.80
2017-12-29T00:06:55.518Z,16.80
2017-12-29T00:11:58.350Z,16.80
2017-12-29T00:17:00.935Z,16.80
2017-12-29T00:22:04.595Z,16.80
2017-12-29T00:27:07.224Z,16.80
2017-12-29T00:32:09.821Z,16.80
2017-12-29T00:37:12.457Z,16.80
2017-12-29T00:42:15.192Z,16.80
2017-12-29T00:47:18.569Z,16.70
2017-12-29T00:52:21.167Z,16.70
2017-12-29T00:57:23.808Z,16.80
2017-12-29T01:02:26.405Z,16.70
2017-12-29T01:07:29.191Z,16.70
2017-12-29T01:12:31.817Z,16.70
2017-12-29T01:17:34.524Z,16.70
2017-12-29T01:22:37.154Z,16.70
2017-12-29T01:27:39.821Z,16.70
2017-12-29T01:32:42.414Z,16.70
2017-12-29T01:37:45.040Z,16.70
2017-12-29T01:42:47.660Z,16.70
2017-12-29T01:47:57.164Z,16.70
2017-12-29T01:52:59.806Z,16.70
2017-12-29T01:58:02.409Z,16.70
2017-12-29T02:03:05.785Z,16.70
2017-12-29T02:08:08.437Z,16.70
2017-12-29T02:13:11.002Z,16.70
2017-12-29T02:18:15.949Z,16.70
2017-12-29T02:23:18.756Z,16.70
2017-12-29T02:28:23.877Z,16.70
2017-12-29T02:33:27.451Z,16.70
2017-12-29T02:38:30.418Z,16.70
2017-12-29T02:43:33.058Z,16.70
2017-12-29T02:48:35.714Z,16.70
2017-12-29T02:53:38.419Z,16.70
2017-12-29T02:58:41.053Z,16.60
2017-12-29T03:03:43.889Z,16.60
2017-12-29T03:08:46.493Z,16.60
2017-12-29T03:13:49.341Z,16.60
2017-12-29T03:18:52.179Z,16.60
2017-12-29T03:23:54.834Z,16.60
2017-12-29T03:28:57.459Z,16.60
2017-12-29T03:34:00.053Z,16.60
2017-12-29T03:39:02.672Z,16.60
2017-12-29T03:44:05.238Z,16.60
2017-12-29T03:49:07.816Z,16.60
2017-12-29T03:54:10.414Z,16.60
2017-12-29T03:59:13.038Z,16.60
2017-12-29T04:04:15.617Z,16.60
2017-12-29T04:09:18.761Z,16.60
2017-12-29T04:14:21.383Z,16.60
2017-12-29T04:19:24.739Z,16.60
2017-12-29T04:24:27.362Z,16.60
2017-12-29T04:29:29.965Z,16.60
2017-12-29T04:34:32.583Z,16.60
2017-12-29T04:39:35.310Z,16.60
2017-12-29T04:44:38.143Z,16.60
2017-12-29T04:49:40.748Z,16.60
2017-12-29T04:54:43.311Z,16.60
2017-12-29T04:59:45.921Z,16.60
2017-12-29T05:04:48.726Z,16.60
2017-12-29T05:09:51.930Z,16.60
2017-12-29T05:14:54.502Z,16.60
2017-12-29T05:19:57.068Z,16.60
2017-12-29T05:24:59.745Z,16.60
2017-12-29T05:30:03.850Z,16.60
2017-12-29T05:35:06.474Z,16.50
2017-12-29T05:40:09.911Z,16.50
2017-12-29T05:45:12.532Z,16.50
2017-12-29T05:50:15.184Z,16.60
2017-12-29T05:55:18.575Z,16.50
2017-12-29T06:00:22.666Z,16.50
2017-12-29T06:05:25.370Z,16.50
2017-12-29T06:10:27.984Z,16.60
2017-12-29T06:15:30.570Z,16.50
2017-12-29T06:20:33.165Z,16.50
2017-12-29T06:25:35.928Z,16.60
2017-12-29T06:30:38.545Z,16.50
2017-12-29T06:35:41.319Z,16.50
2017-12-29T06:40:44.691Z,16.50
2017-12-29T06:45:47.559Z,16.50
2017-12-29T06:50:50.206Z,16.60
2017-12-29T06:55:52.871Z,16.50
2017-12-29T07:00:55.520Z,16.60
2017-12-29T07:05:58.142Z,16.50
2017-12-29T07:11:00.728Z,16.50
2017-12-29T07:16:04.320Z,16.50
2017-12-29T07:21:07.665Z,16.50
2017-12-29T07:26:10.276Z,16.50
2017-12-29T07:31:13.049Z,16.50
2017-12-29T07:36:15.670Z,16.50
2017-12-29T07:41:18.314Z,16.50
2017-12-29T07:46:21.702Z,16.50
2017-12-29T07:51:24.483Z,16.50
2017-12-29T07:56:27.890Z,16.50
2017-12-29T08:01:30.576Z,16.50
2017-12-29T08:06:34.273Z,16.50
2017-12-29T08:11:37.164Z,16.50
2017-12-29T08:16:40.422Z,16.50
2017-12-29T08:21:44.641Z,16.50
2017-12-29T08:26:47.287Z,16.50
2017-12-29T08:31:50.699Z,16.50
2017-12-29T08:36:54.801Z,16.50
2017-12-29T08:41:57.556Z,16.50
2017-12-29T08:47:00.300Z,16.50
2017-12-29T08:52:02.941Z,16.50
2017-12-29T08:57:06.292Z,16.50
2017-12-29T09:02:09.006Z,16.50
2017-12-29T09:07:11.594Z,16.50
2017-12-29T09:12:14.243Z,16.50
2017-12-29T09:17:16.878Z,16.50
2017-12-29T09:22:19.562Z,16.50
2017-12-29T09:27:22.206Z,16.50
2017-12-29T09:32:24.929Z,16.50
2017-12-29T09:37:27.493Z,16.50
2017-12-29T09:42:31.289Z,16.50
2017-12-29T09:47:34.811Z,16.50
2017-12-29T09:52:37.459Z,16.50
2017-12-29T09:57:40.158Z,16.50
2017-12-29T10:02:42.821Z,16.50
2017-12-29T10:07:46.243Z,16.50
2017-12-29T10:12:49.014Z,16.50
2017-12-29T10:17:52.864Z,16.50
2017-12-29T10:22:56.916Z,16.50
2017-12-29T10:28:00.316Z,16.50
2017-12-29T10:33:02.970Z,16.50
2017-12-29T10:38:05.721Z,16.50
2017-12-29T10:43:08.381Z,16.50
2017-12-29T10:48:10.967Z,16.50
2017-12-29T10:53:13.789Z,16.50
2017-12-29T10:58:16.801Z,16.50
2017-12-29T11:03:19.579Z,16.50
2017-12-29T11:08:22.199Z,16.50
2017-12-29T11:13:24.840Z,16.50
2017-12-29T11:18:28.036Z,16.50
2017-12-29T11:23:30.768Z,16.50
2017-12-29T11:28:33.413Z,16.50
2017-12-29T11:33:36.055Z,16.50
2017-12-29T11:38:38.673Z,16.60
2017-12-29T11:43:41.331Z,16.50
2017-12-29T11:48:43.957Z,16.50
2017-12-29T11:53:46.583Z,16.50
2017-12-29T11:58:49.986Z,16.50
2017-12-29T12:03:53.616Z,16.50
2017-12-29T12:08:56.290Z,16.50
2017-12-29T12:13:58.896Z,16.50
2017-12-29T12:19:01.719Z,16.50
2017-12-29T12:24:04.529Z,16.50
2017-12-29T12:29:07.926Z,16.50
2017-12-29T12:34:10.737Z,16.50
2017-12-29T12:39:14.231Z,16.50
2017-12-29T12:44:18.193Z,16.60
2017-12-29T12:49:20.806Z,16.60
2017-12-29T12:54:23.519Z,16.60
2017-12-29T12:59:27.230Z,16.60
2017-12-29T13:04:30.045Z,16.60
2017-12-29T13:09:32.646Z,16.60
2017-12-29T13:14:35.273Z,16.60
2017-12-29T13:19:37.853Z,16.60
2017-12-29T13:24:40.493Z,16.60
2017-12-29T13:29:43.168Z,16.60
2017-12-29T13:34:45.783Z,16.60
2017-12-29T13:39:48.350Z,16.60
2017-12-29T13:44:51.007Z,16.60
2017-12-29T13:49:53.776Z,16.60
2017-12-29T13:54:56.453Z,16.60
2017-12-29T13:59:59.845Z,16.60
2017-12-29T14:05:02.401Z,16.60
2017-12-29T14:10:05.053Z,16.60
2017-12-29T14:15:08.474Z,16.60
2017-12-29T14:20:11.074Z,16.60
2017-12-29T14:25:13.687Z,16.60
2017-12-29T14:30:17.059Z,16.60
2017-12-29T14:35:20.832Z,16.60
2017-12-29T14:40:23.423Z,16.60
2017-12-29T14:45:26.814Z,16.60
2017-12-29T14:50:29.419Z,16.60
2017-12-29T14:55:32.052Z,16.50
2017-12-29T15:00:35.348Z,16.50
2017-12-29T15:05:37.975Z,16.50
2017-12-29T15:10:40.755Z,16.50
2017-12-29T15:15:43.394Z,16.50
2017-12-29T15:20:46.781Z,16.50
2017-12-29T15:25:49.409Z,16.50
2017-12-29T15:30:52.010Z,16.50
2017-12-29T15:35:55.024Z,16.50
2017-12-29T15:40:57.680Z,16.50
2017-12-29T15:46:00.371Z,16.50
2017-12-29T15:51:04.481Z,16.50
2017-12-29T15:56:07.085Z,16.50
2017-12-29T16:01:34.157Z,16.50
2017-12-29T16:06:36.812Z,16.50
2017-12-29T16:11:39.419Z,16.50
2017-12-29T16:16:42.605Z,16.50
2017-12-29T16:21:45.433Z,16.50
2017-12-29T16:26:48.047Z,16.50
2017-12-29T16:31:50.741Z,16.50
2017-12-29T16:36:53.850Z,16.50
2017-12-29T16:41:56.476Z,16.50
2017-12-29T16:46:59.225Z,16.50
2017-12-29T16:52:02.950Z,16.50
2017-12-29T16:57:05.551Z,16.40
2017-12-29T17:02:08.294Z,16.50
2017-12-29T17:07:11.894Z,16.50
2017-12-29T17:12:14.580Z,16.50
2017-12-29T17:17:19.737Z,16.40
2017-12-29T17:22:22.323Z,16.50
2017-12-29T17:27:25.760Z,16.40
2017-12-29T17:32:28.335Z,16.40
2017-12-29T17:37:30.933Z,16.40
2017-12-29T17:42:34.661Z,16.40
2017-12-29T17:47:37.274Z,16.40
2017-12-29T17:52:39.896Z,16.40
2017-12-29T17:57:42.527Z,16.40
2017-12-29T18:02:45.234Z,16.40
2017-12-29T18:07:47.813Z,16.40
2017-12-29T18:12:50.423Z,16.40
2017-12-29T18:17:53.019Z,16.40
2017-12-29T18:22:55.627Z,16.40
2017-12-29T18:27:58.230Z,16.40
2017-12-29T18:33:00.877Z,16.40
2017-12-29T18:38:03.466Z,16.40
2017-12-29T18:43:06.166Z,16.40
2017-12-29T18:48:08.759Z,16.40
2017-12-29T18:53:11.355Z,16.40
2017-12-29T18:58:13.982Z,16.40
2017-12-29T19:03:16.679Z,16.30
2017-12-29T19:08:20.063Z,16.30
2017-12-29T19:13:22.652Z,16.40
2017-12-29T19:18:25.247Z,16.30
2017-12-29T19:23:27.847Z,16.30
2017-12-29T19:28:30.411Z,16.30
2017-12-29T19:33:33.673Z,16.30
2017-12-29T19:38:37.048Z,16.30
2017-12-29T19:43:40.859Z,16.30
2017-12-29T19:48:43.479Z,16.30
2017-12-29T19:53:46.076Z,16.30
2017-12-29T19:58:48.642Z,16.30
2017-12-29T20:03:51.283Z,16.30
2017-12-29T20:08:54.620Z,16.30
2017-12-29T20:13:57.220Z,16.30
2017-12-29T20:19:01.687Z,16.30
2017-12-29T20:24:04.339Z,16.30
2017-12-29T20:29:07.596Z,16.30
2017-12-29T20:34:10.330Z,16.30
2017-12-29T20:39:13.145Z,16.30
2017-12-29T20:44:18.681Z,16.30
2017-12-29T20:49:21.311Z,16.20
2017-12-29T20:54:24.315Z,16.30
2017-12-29T20:59:27.690Z,16.20
2017-12-29T21:04:30.276Z,16.20
2017-12-29T21:09:33.611Z,16.20
2017-12-29T21:14:37.065Z,16.30
2017-12-29T21:19:39.777Z,16.20
2017-12-29T21:24:42.551Z,16.20
2017-12-29T21:29:46.099Z,16.20
2017-12-29T21:34:48.732Z,16.20
2017-12-29T21:39:51.385Z,16.20
2017-12-29T21:44:53.973Z,16.20
2017-12-29T21:49:56.577Z,16.20
2017-12-29T21:55:00.252Z,16.20
2017-12-29T22:00:03.442Z,16.20
2017-12-29T22:05:06.804Z,16.20
2017-12-29T22:10:09.360Z,16.20
2017-12-29T22:15:13.273Z,16.20
2017-12-29T22:20:16.002Z,16.20
2017-12-29T22:25:18.636Z,16.20
2017-12-29T22:30:21.995Z,16.20
2017-12-29T22:35:24.636Z,16.20
2017-12-29T22:40:27.229Z,16.20
2017-12-29T22:45:29.875Z,16.20
2017-12-29T22:50:33.468Z,16.20
2017-12-29T22:55:36.601Z,16.20
2017-12-29T23:00:39.438Z,16.10
2017-12-29T23:05:42.003Z,16.10
2017-12-29T23:10:44.559Z,16.20
2017-12-29T23:15:49.176Z,16.10
2017-12-29T23:20:52.312Z,16.10
2017-12-29T23:25:54.997Z,16.10
2017-12-29T23:30:58.235Z,16.10
2017-12-29T23:36:00.879Z,16.10
2017-12-29T23:41:04.089Z,16.10
2017-12-29T23:46:06.761Z,16.10
2017-12-29T23:51:09.386Z,16.10
2017-12-29T23:56:12.735Z,16.10
